Terminal Aerodrome Forecast
Issued by NWS Corpus Christi, TX

Home | Current Version | Previous Version | Text Only | Print | Product List | Glossary On
Versions: 1 2 3 4 5 6 7 8 9 10 11 12 13 14 15 16 17 18 19 20 21
261
FTUS44 KCRP 300948 AAA
TAFCRP
TAF AMD
KCRP 300948Z 3010/0106 16012KT 6SM BR SCT015 OVC030
      TEMPO 3010/3014 SCT009 OVC015
     FM301400 15007KT P6SM VCSH BKN012 OVC040
     FM301800 13008KT P6SM VCTS BKN025CB
     FM302100 11012KT P6SM SCT035
     FM010300 11008KT P6SM BKN015=

USA.gov is the U.S. government's official web portal to all federal, state and local government web resources and services.